sensor_id;sensor_type;location;lat;lon;timestamp;P1;durP1;ratioP1;P2;durP2;ratioP2
84495;SDS011;74855;51.206;17.408;2024-03-07T00:02:28;24.45;;;12.32;;
84495;SDS011;74855;51.206;17.408;2024-03-07T00:07:23;30.13;;;14.68;;
84495;SDS011;74855;51.206;17.408;2024-03-07T00:12:20;26.13;;;13.93;;
84495;SDS011;74855;51.206;17.408;2024-03-07T00:17:16;24.67;;;13.32;;
84495;SDS011;74855;51.206;17.408;2024-03-07T00:22:12;18.70;;;10.00;;
84495;SDS011;74855;51.206;17.408;2024-03-07T00:27:08;26.13;;;12.45;;
84495;SDS011;74855;51.206;17.408;2024-03-07T00:32:05;21.67;;;11.10;;
84495;SDS011;74855;51.206;17.408;2024-03-07T00:37:01;20.15;;;10.25;;
84495;SDS011;74855;51.206;17.408;2024-03-07T00:41:57;24.90;;;13.48;;
84495;SDS011;74855;51.206;17.408;2024-03-07T00:46:53;24.73;;;13.85;;
84495;SDS011;74855;51.206;17.408;2024-03-07T00:51:51;25.33;;;13.57;;
84495;SDS011;74855;51.206;17.408;2024-03-07T00:56:47;24.95;;;12.20;;
84495;SDS011;74855;51.206;17.408;2024-03-07T01:01:44;19.67;;;11.20;;
84495;SDS011;74855;51.206;17.408;2024-03-07T01:06:39;21.27;;;10.85;;
84495;SDS011;74855;51.206;17.408;2024-03-07T01:11:36;24.30;;;11.80;;
84495;SDS011;74855;51.206;17.408;2024-03-07T01:16:32;19.00;;;11.20;;
84495;SDS011;74855;51.206;17.408;2024-03-07T01:21:28;24.05;;;12.27;;
84495;SDS011;74855;51.206;17.408;2024-03-07T01:31:21;13.43;;;7.17;;
84495;SDS011;74855;51.206;17.408;2024-03-07T01:36:16;17.50;;;8.98;;
84495;SDS011;74855;51.206;17.408;2024-03-07T01:41:13;18.98;;;11.13;;
84495;SDS011;74855;51.206;17.408;2024-03-07T01:46:09;23.48;;;11.80;;
84495;SDS011;74855;51.206;17.408;2024-03-07T01:51:07;19.73;;;11.45;;
84495;SDS011;74855;51.206;17.408;2024-03-07T01:56:03;21.60;;;10.55;;
84495;SDS011;74855;51.206;17.408;2024-03-07T02:01:00;20.60;;;10.90;;
84495;SDS011;74855;51.206;17.408;2024-03-07T02:10:53;16.70;;;10.17;;
84495;SDS011;74855;51.206;17.408;2024-03-07T02:15:48;24.52;;;11.73;;
84495;SDS011;74855;51.206;17.408;2024-03-07T02:25:47;20.95;;;11.20;;
84495;SDS011;74855;51.206;17.408;2024-03-07T02:30:43;27.52;;;13.88;;
84495;SDS011;74855;51.206;17.408;2024-03-07T02:35:39;24.80;;;11.68;;
84495;SDS011;74855;51.206;17.408;2024-03-07T02:40:36;25.08;;;11.77;;
84495;SDS011;74855;51.206;17.408;2024-03-07T02:45:31;20.10;;;10.95;;
84495;SDS011;74855;51.206;17.408;2024-03-07T02:50:27;15.60;;;9.57;;
84495;SDS011;74855;51.206;17.408;2024-03-07T02:55:23;16.55;;;9.52;;
84495;SDS011;74855;51.206;17.408;2024-03-07T03:00:20;20.60;;;10.68;;
84495;SDS011;74855;51.206;17.408;2024-03-07T03:05:16;19.00;;;9.25;;
84495;SDS011;74855;51.206;17.408;2024-03-07T03:15:07;21.23;;;12.53;;
84495;SDS011;74855;51.206;17.408;2024-03-07T03:20:06;23.65;;;11.77;;
84495;SDS011;74855;51.206;17.408;2024-03-07T03:25:02;20.77;;;11.38;;
84495;SDS011;74855;51.206;17.408;2024-03-07T03:29:59;21.02;;;11.88;;
84495;SDS011;74855;51.206;17.408;2024-03-07T03:39:51;18.23;;;9.30;;
84495;SDS011;74855;51.206;17.408;2024-03-07T03:44:47;19.00;;;9.23;;
84495;SDS011;74855;51.206;17.408;2024-03-07T03:54:38;15.83;;;8.63;;
84495;SDS011;74855;51.206;17.408;2024-03-07T04:04:31;19.58;;;9.85;;
84495;SDS011;74855;51.206;17.408;2024-03-07T04:14:22;18.70;;;9.47;;
84495;SDS011;74855;51.206;17.408;2024-03-07T04:24:14;21.30;;;11.85;;
84495;SDS011;74855;51.206;17.408;2024-03-07T04:34:05;15.97;;;9.40;;
84495;SDS011;74855;51.206;17.408;2024-03-07T04:43:58;19.52;;;9.35;;
84495;SDS011;74855;51.206;17.408;2024-03-07T04:53:49;12.00;;;6.60;;
84495;SDS011;74855;51.206;17.408;2024-03-07T04:58:47;19.10;;;11.00;;
84495;SDS011;74855;51.206;17.408;2024-03-07T05:03:43;26.20;;;12.45;;
84495;SDS011;74855;51.206;17.408;2024-03-07T05:08:39;18.77;;;9.98;;
84495;SDS011;74855;51.206;17.408;2024-03-07T05:13:34;22.20;;;12.35;;
84495;SDS011;74855;51.206;17.408;2024-03-07T05:23:27;20.13;;;10.75;;
84495;SDS011;74855;51.206;17.408;2024-03-07T05:33:18;18.07;;;11.80;;
84495;SDS011;74855;51.206;17.408;2024-03-07T05:38:15;17.20;;;10.85;;
84495;SDS011;74855;51.206;17.408;2024-03-07T05:43:11;17.67;;;9.57;;
84495;SDS011;74855;51.206;17.408;2024-03-07T05:48:13;22.15;;;11.90;;
84495;SDS011;74855;51.206;17.408;2024-03-07T05:53:10;15.52;;;9.43;;
84495;SDS011;74855;51.206;17.408;2024-03-07T06:03:04;21.70;;;10.98;;
84495;SDS011;74855;51.206;17.408;2024-03-07T06:07:59;20.98;;;10.70;;
84495;SDS011;74855;51.206;17.408;2024-03-07T06:12:56;17.85;;;9.77;;
84495;SDS011;74855;51.206;17.408;2024-03-07T06:17:53;21.48;;;11.55;;
84495;SDS011;74855;51.206;17.408;2024-03-07T06:22:49;20.65;;;11.23;;
84495;SDS011;74855;51.206;17.408;2024-03-07T06:27:45;20.15;;;10.65;;
84495;SDS011;74855;51.206;17.408;2024-03-07T06:32:41;16.67;;;10.13;;
84495;SDS011;74855;51.206;17.408;2024-03-07T06:37:38;15.90;;;10.25;;
84495;SDS011;74855;51.206;17.408;2024-03-07T06:42:34;21.70;;;11.65;;
84495;SDS011;74855;51.206;17.408;2024-03-07T06:47:30;17.92;;;10.20;;
84495;SDS011;74855;51.206;17.408;2024-03-07T06:52:25;17.80;;;10.55;;
84495;SDS011;74855;51.206;17.408;2024-03-07T06:57:23;16.30;;;9.15;;
84495;SDS011;74855;51.206;17.408;2024-03-07T07:02:18;18.15;;;10.77;;
84495;SDS011;74855;51.206;17.408;2024-03-07T07:07:14;20.20;;;10.38;;
84495;SDS011;74855;51.206;17.408;2024-03-07T07:12:10;16.75;;;9.23;;
84495;SDS011;74855;51.206;17.408;2024-03-07T07:17:07;15.32;;;9.27;;
84495;SDS011;74855;51.206;17.408;2024-03-07T07:22:03;19.35;;;11.10;;
84495;SDS011;74855;51.206;17.408;2024-03-07T07:26:59;17.17;;;9.98;;
84495;SDS011;74855;51.206;17.408;2024-03-07T07:31:55;18.60;;;10.05;;
84495;SDS011;74855;51.206;17.408;2024-03-07T07:36:53;17.08;;;8.55;;
84495;SDS011;74855;51.206;17.408;2024-03-07T07:41:49;20.60;;;11.50;;
84495;SDS011;74855;51.206;17.408;2024-03-07T07:46:44;19.67;;;10.82;;
84495;SDS011;74855;51.206;17.408;2024-03-07T07:51:41;18.42;;;10.30;;
84495;SDS011;74855;51.206;17.408;2024-03-07T07:56:38;18.45;;;10.07;;
84495;SDS011;74855;51.206;17.408;2024-03-07T08:01:34;19.70;;;11.40;;
84495;SDS011;74855;51.206;17.408;2024-03-07T08:06:30;16.38;;;9.40;;
84495;SDS011;74855;51.206;17.408;2024-03-07T08:11:25;22.20;;;11.95;;
84495;SDS011;74855;51.206;17.408;2024-03-07T08:16:29;17.42;;;9.85;;
84495;SDS011;74855;51.206;17.408;2024-03-07T08:21:24;17.65;;;10.40;;
84495;SDS011;74855;51.206;17.408;2024-03-07T08:26:20;17.77;;;10.18;;
84495;SDS011;74855;51.206;17.408;2024-03-07T08:31:16;14.95;;;8.55;;
84495;SDS011;74855;51.206;17.408;2024-03-07T08:36:13;16.10;;;8.20;;
84495;SDS011;74855;51.206;17.408;2024-03-07T08:41:09;12.25;;;6.93;;
84495;SDS011;74855;51.206;17.408;2024-03-07T08:46:05;15.05;;;7.65;;
84495;SDS011;74855;51.206;17.408;2024-03-07T08:51:00;13.30;;;7.32;;
84495;SDS011;74855;51.206;17.408;2024-03-07T08:55:59;13.48;;;8.10;;
84495;SDS011;74855;51.206;17.408;2024-03-07T09:00:54;14.75;;;8.00;;
84495;SDS011;74855;51.206;17.408;2024-03-07T09:05:50;11.27;;;6.30;;
84495;SDS011;74855;51.206;17.408;2024-03-07T09:10:46;14.85;;;9.35;;
84495;SDS011;74855;51.206;17.408;2024-03-07T09:15:43;14.60;;;8.30;;
84495;SDS011;74855;51.206;17.408;2024-03-07T09:20:39;17.83;;;9.32;;
84495;SDS011;74855;51.206;17.408;2024-03-07T09:25:34;15.50;;;8.93;;
84495;SDS011;74855;51.206;17.408;2024-03-07T09:30:30;16.70;;;10.98;;
84495;SDS011;74855;51.206;17.408;2024-03-07T09:35:27;19.48;;;12.02;;
84495;SDS011;74855;51.206;17.408;2024-03-07T09:40:23;20.38;;;12.45;;
84495;SDS011;74855;51.206;17.408;2024-03-07T09:45:19;15.13;;;8.77;;
84495;SDS011;74855;51.206;17.408;2024-03-07T09:50:16;18.88;;;12.07;;
84495;SDS011;74855;51.206;17.408;2024-03-07T09:55:13;15.07;;;8.90;;
84495;SDS011;74855;51.206;17.408;2024-03-07T10:00:10;12.48;;;6.90;;
84495;SDS011;74855;51.206;17.408;2024-03-07T10:05:07;15.40;;;8.77;;
84495;SDS011;74855;51.206;17.408;2024-03-07T10:10:10;16.25;;;11.05;;
84495;SDS011;74855;51.206;17.408;2024-03-07T10:15:07;18.10;;;10.60;;
84495;SDS011;74855;51.206;17.408;2024-03-07T10:20:04;13.95;;;11.15;;
84495;SDS011;74855;51.206;17.408;2024-03-07T10:25:01;15.48;;;11.43;;
84495;SDS011;74855;51.206;17.408;2024-03-07T10:29:56;15.32;;;11.18;;
84495;SDS011;74855;51.206;17.408;2024-03-07T10:34:53;14.52;;;10.93;;
84495;SDS011;74855;51.206;17.408;2024-03-07T10:39:49;14.25;;;11.05;;
84495;SDS011;74855;51.206;17.408;2024-03-07T10:44:47;15.43;;;11.48;;
84495;SDS011;74855;51.206;17.408;2024-03-07T10:49:50;15.30;;;10.55;;
84495;SDS011;74855;51.206;17.408;2024-03-07T10:54:58;14.63;;;10.20;;
84495;SDS011;74855;51.206;17.408;2024-03-07T11:00:03;14.85;;;9.65;;
84495;SDS011;74855;51.206;17.408;2024-03-07T11:05:01;16.40;;;11.52;;
84495;SDS011;74855;51.206;17.408;2024-03-07T11:09:58;16.08;;;12.20;;
84495;SDS011;74855;51.206;17.408;2024-03-07T11:14:56;15.73;;;11.10;;
84495;SDS011;74855;51.206;17.408;2024-03-07T11:19:52;14.15;;;11.20;;
84495;SDS011;74855;51.206;17.408;2024-03-07T11:25:01;14.05;;;11.02;;
84495;SDS011;74855;51.206;17.408;2024-03-07T11:30:04;13.63;;;9.88;;
84495;SDS011;74855;51.206;17.408;2024-03-07T11:35:03;14.10;;;9.73;;
84495;SDS011;74855;51.206;17.408;2024-03-07T11:40:01;14.18;;;8.40;;
84495;SDS011;74855;51.206;17.408;2024-03-07T11:44:57;14.82;;;10.77;;
84495;SDS011;74855;51.206;17.408;2024-03-07T11:49:53;13.05;;;7.55;;
84495;SDS011;74855;51.206;17.408;2024-03-07T11:54:50;17.10;;;10.52;;
84495;SDS011;74855;51.206;17.408;2024-03-07T11:59:47;14.20;;;8.38;;
84495;SDS011;74855;51.206;17.408;2024-03-07T12:04:43;15.00;;;9.00;;
84495;SDS011;74855;51.206;17.408;2024-03-07T12:09:39;16.75;;;9.70;;
84495;SDS011;74855;51.206;17.408;2024-03-07T12:14:35;14.52;;;9.13;;
84495;SDS011;74855;51.206;17.408;2024-03-07T12:19:32;16.17;;;9.13;;
84495;SDS011;74855;51.206;17.408;2024-03-07T12:24:28;16.05;;;9.10;;
84495;SDS011;74855;51.206;17.408;2024-03-07T12:29:25;15.45;;;9.75;;
84495;SDS011;74855;51.206;17.408;2024-03-07T12:34:21;16.33;;;9.50;;
84495;SDS011;74855;51.206;17.408;2024-03-07T12:39:26;11.63;;;6.78;;
84495;SDS011;74855;51.206;17.408;2024-03-07T12:44:22;17.10;;;8.77;;
84495;SDS011;74855;51.206;17.408;2024-03-07T12:49:18;16.58;;;9.13;;
84495;SDS011;74855;51.206;17.408;2024-03-07T12:54:13;13.18;;;7.78;;
84495;SDS011;74855;51.206;17.408;2024-03-07T12:59:10;14.73;;;7.20;;
84495;SDS011;74855;51.206;17.408;2024-03-07T13:04:06;13.60;;;6.95;;
84495;SDS011;74855;51.206;17.408;2024-03-07T13:09:02;12.70;;;6.90;;
84495;SDS011;74855;51.206;17.408;2024-03-07T13:13:58;16.30;;;9.13;;
84495;SDS011;74855;51.206;17.408;2024-03-07T13:18:55;15.65;;;9.07;;
84495;SDS011;74855;51.206;17.408;2024-03-07T13:23:51;16.75;;;8.45;;
84495;SDS011;74855;51.206;17.408;2024-03-07T13:28:46;14.45;;;8.73;;
84495;SDS011;74855;51.206;17.408;2024-03-07T13:33:42;14.77;;;8.50;;
84495;SDS011;74855;51.206;17.408;2024-03-07T13:38:39;14.77;;;8.38;;
84495;SDS011;74855;51.206;17.408;2024-03-07T13:43:35;17.65;;;8.75;;
84495;SDS011;74855;51.206;17.408;2024-03-07T13:48:31;16.58;;;9.25;;
84495;SDS011;74855;51.206;17.408;2024-03-07T13:53:27;17.40;;;8.85;;
84495;SDS011;74855;51.206;17.408;2024-03-07T13:58:36;15.65;;;7.05;;
84495;SDS011;74855;51.206;17.408;2024-03-07T14:03:58;17.17;;;9.63;;
84495;SDS011;74855;51.206;17.408;2024-03-07T14:09:25;17.52;;;9.50;;
84495;SDS011;74855;51.206;17.408;2024-03-07T14:14:44;14.32;;;8.05;;
84495;SDS011;74855;51.206;17.408;2024-03-07T14:25:49;12.93;;;7.50;;
84495;SDS011;74855;51.206;17.408;2024-03-07T14:30:58;15.38;;;8.10;;
84495;SDS011;74855;51.206;17.408;2024-03-07T14:36:00;16.08;;;8.13;;
84495;SDS011;74855;51.206;17.408;2024-03-07T14:40:59;17.48;;;10.18;;
84495;SDS011;74855;51.206;17.408;2024-03-07T14:45:55;14.23;;;8.70;;
84495;SDS011;74855;51.206;17.408;2024-03-07T14:50:52;14.40;;;7.93;;
84495;SDS011;74855;51.206;17.408;2024-03-07T14:55:48;22.42;;;10.77;;
84495;SDS011;74855;51.206;17.408;2024-03-07T15:00:44;19.35;;;10.63;;
84495;SDS011;74855;51.206;17.408;2024-03-07T15:05:40;15.90;;;10.10;;
84495;SDS011;74855;51.206;17.408;2024-03-07T15:10:38;20.17;;;10.25;;
84495;SDS011;74855;51.206;17.408;2024-03-07T15:15:39;18.67;;;10.25;;
84495;SDS011;74855;51.206;17.408;2024-03-07T15:20:35;20.42;;;11.80;;
84495;SDS011;74855;51.206;17.408;2024-03-07T15:25:31;20.88;;;11.82;;
84495;SDS011;74855;51.206;17.408;2024-03-07T15:30:29;11.35;;;6.22;;
84495;SDS011;74855;51.206;17.408;2024-03-07T15:35:25;18.60;;;9.70;;
84495;SDS011;74855;51.206;17.408;2024-03-07T15:40:20;15.18;;;8.40;;
84495;SDS011;74855;51.206;17.408;2024-03-07T15:45:16;15.13;;;7.40;;
84495;SDS011;74855;51.206;17.408;2024-03-07T15:50:15;17.77;;;9.30;;
84495;SDS011;74855;51.206;17.408;2024-03-07T15:55:12;17.38;;;8.45;;
84495;SDS011;74855;51.206;17.408;2024-03-07T16:00:08;16.88;;;8.80;;
84495;SDS011;74855;51.206;17.408;2024-03-07T16:05:05;17.58;;;10.02;;
84495;SDS011;74855;51.206;17.408;2024-03-07T16:10:02;15.23;;;7.85;;
84495;SDS011;74855;51.206;17.408;2024-03-07T16:14:59;19.65;;;11.00;;
84495;SDS011;74855;51.206;17.408;2024-03-07T16:19:54;16.60;;;9.05;;
84495;SDS011;74855;51.206;17.408;2024-03-07T16:24:50;18.00;;;9.60;;
84495;SDS011;74855;51.206;17.408;2024-03-07T16:29:47;22.17;;;11.43;;
84495;SDS011;74855;51.206;17.408;2024-03-07T16:34:43;16.42;;;9.82;;
84495;SDS011;74855;51.206;17.408;2024-03-07T16:39:39;18.27;;;9.93;;
84495;SDS011;74855;51.206;17.408;2024-03-07T16:44:35;20.00;;;11.05;;
84495;SDS011;74855;51.206;17.408;2024-03-07T16:49:32;20.50;;;11.18;;
84495;SDS011;74855;51.206;17.408;2024-03-07T16:54:29;19.95;;;10.20;;
84495;SDS011;74855;51.206;17.408;2024-03-07T16:59:25;18.88;;;11.05;;
84495;SDS011;74855;51.206;17.408;2024-03-07T17:04:21;18.67;;;10.98;;
84495;SDS011;74855;51.206;17.408;2024-03-07T17:09:19;16.35;;;9.90;;
84495;SDS011;74855;51.206;17.408;2024-03-07T17:14:14;23.77;;;10.52;;
84495;SDS011;74855;51.206;17.408;2024-03-07T17:19:10;19.42;;;12.57;;
84495;SDS011;74855;51.206;17.408;2024-03-07T17:24:06;23.00;;;13.38;;
84495;SDS011;74855;51.206;17.408;2024-03-07T17:29:03;21.30;;;11.77;;
84495;SDS011;74855;51.206;17.408;2024-03-07T17:33:59;21.27;;;12.65;;
84495;SDS011;74855;51.206;17.408;2024-03-07T17:38:55;28.50;;;17.05;;
84495;SDS011;74855;51.206;17.408;2024-03-07T17:43:51;21.52;;;11.50;;
84495;SDS011;74855;51.206;17.408;2024-03-07T17:48:49;21.17;;;13.75;;
84495;SDS011;74855;51.206;17.408;2024-03-07T17:53:45;28.38;;;12.73;;
84495;SDS011;74855;51.206;17.408;2024-03-07T17:58:40;22.38;;;11.00;;
84495;SDS011;74855;51.206;17.408;2024-03-07T18:03:36;20.42;;;9.48;;
84495;SDS011;74855;51.206;17.408;2024-03-07T18:08:34;20.00;;;11.77;;
84495;SDS011;74855;51.206;17.408;2024-03-07T18:13:29;18.75;;;10.85;;
84495;SDS011;74855;51.206;17.408;2024-03-07T18:18:25;20.48;;;10.90;;
84495;SDS011;74855;51.206;17.408;2024-03-07T18:23:21;17.25;;;8.70;;
84495;SDS011;74855;51.206;17.408;2024-03-07T18:28:19;19.70;;;9.85;;
84495;SDS011;74855;51.206;17.408;2024-03-07T18:33:14;14.38;;;8.05;;
84495;SDS011;74855;51.206;17.408;2024-03-07T18:38:10;18.42;;;9.60;;
84495;SDS011;74855;51.206;17.408;2024-03-07T18:43:06;20.08;;;10.05;;
84495;SDS011;74855;51.206;17.408;2024-03-07T18:48:04;11.75;;;5.93;;
84495;SDS011;74855;51.206;17.408;2024-03-07T18:53:00;14.80;;;9.07;;
84495;SDS011;74855;51.206;17.408;2024-03-07T18:57:57;15.02;;;9.00;;
84495;SDS011;74855;51.206;17.408;2024-03-07T19:02:55;19.27;;;10.57;;
84495;SDS011;74855;51.206;17.408;2024-03-07T19:07:53;19.95;;;10.98;;
84495;SDS011;74855;51.206;17.408;2024-03-07T19:12:49;17.08;;;9.10;;
84495;SDS011;74855;51.206;17.408;2024-03-07T19:17:45;20.85;;;10.60;;
84495;SDS011;74855;51.206;17.408;2024-03-07T19:22:41;20.15;;;11.02;;
84495;SDS011;74855;51.206;17.408;2024-03-07T19:27:39;17.10;;;9.45;;
84495;SDS011;74855;51.206;17.408;2024-03-07T19:32:35;19.45;;;10.43;;
84495;SDS011;74855;51.206;17.408;2024-03-07T19:37:31;21.85;;;11.55;;
84495;SDS011;74855;51.206;17.408;2024-03-07T19:42:27;17.60;;;9.15;;
84495;SDS011;74855;51.206;17.408;2024-03-07T19:47:24;23.67;;;12.13;;
84495;SDS011;74855;51.206;17.408;2024-03-07T19:52:20;20.70;;;11.77;;
84495;SDS011;74855;51.206;17.408;2024-03-07T19:57:16;24.73;;;13.50;;
84495;SDS011;74855;51.206;17.408;2024-03-07T20:02:12;22.95;;;12.07;;
84495;SDS011;74855;51.206;17.408;2024-03-07T20:12:05;15.07;;;8.50;;
84495;SDS011;74855;51.206;17.408;2024-03-07T20:17:01;22.77;;;10.85;;
84495;SDS011;74855;51.206;17.408;2024-03-07T20:26:54;18.60;;;11.57;;
84495;SDS011;74855;51.206;17.408;2024-03-07T20:31:50;21.73;;;11.63;;
84495;SDS011;74855;51.206;17.408;2024-03-07T20:36:46;21.25;;;11.63;;
84495;SDS011;74855;51.206;17.408;2024-03-07T20:41:41;25.17;;;11.98;;
84495;SDS011;74855;51.206;17.408;2024-03-07T20:46:44;22.05;;;12.23;;
84495;SDS011;74855;51.206;17.408;2024-03-07T20:51:41;23.52;;;12.23;;
84495;SDS011;74855;51.206;17.408;2024-03-07T20:56:37;23.35;;;10.20;;
84495;SDS011;74855;51.206;17.408;2024-03-07T21:01:33;23.00;;;12.82;;
84495;SDS011;74855;51.206;17.408;2024-03-07T21:06:30;20.33;;;10.80;;
84495;SDS011;74855;51.206;17.408;2024-03-07T21:11:25;19.55;;;10.57;;
84495;SDS011;74855;51.206;17.408;2024-03-07T21:16:21;25.02;;;13.43;;
84495;SDS011;74855;51.206;17.408;2024-03-07T21:21:17;28.98;;;12.38;;
84495;SDS011;74855;51.206;17.408;2024-03-07T21:26:14;23.00;;;11.85;;
84495;SDS011;74855;51.206;17.408;2024-03-07T21:31:10;19.25;;;10.90;;
84495;SDS011;74855;51.206;17.408;2024-03-07T21:36:06;23.63;;;13.50;;
84495;SDS011;74855;51.206;17.408;2024-03-07T21:41:02;29.20;;;13.85;;
84495;SDS011;74855;51.206;17.408;2024-03-07T21:46:01;27.45;;;14.73;;
84495;SDS011;74855;51.206;17.408;2024-03-07T21:50:58;25.55;;;15.50;;
84495;SDS011;74855;51.206;17.408;2024-03-07T21:55:54;26.98;;;14.40;;
84495;SDS011;74855;51.206;17.408;2024-03-07T22:00:50;24.35;;;12.18;;
84495;SDS011;74855;51.206;17.408;2024-03-07T22:05:48;21.33;;;11.60;;
84495;SDS011;74855;51.206;17.408;2024-03-07T22:10:44;23.25;;;13.52;;
84495;SDS011;74855;51.206;17.408;2024-03-07T22:15:40;26.05;;;12.57;;
84495;SDS011;74855;51.206;17.408;2024-03-07T22:20:35;27.85;;;15.40;;
84495;SDS011;74855;51.206;17.408;2024-03-07T22:25:32;28.90;;;13.50;;
84495;SDS011;74855;51.206;17.408;2024-03-07T22:30:28;26.80;;;13.27;;
84495;SDS011;74855;51.206;17.408;2024-03-07T22:35:24;30.45;;;15.30;;
84495;SDS011;74855;51.206;17.408;2024-03-07T22:40:20;28.17;;;16.10;;
84495;SDS011;74855;51.206;17.408;2024-03-07T22:45:18;27.83;;;15.20;;
84495;SDS011;74855;51.206;17.408;2024-03-07T22:50:14;31.90;;;18.63;;
84495;SDS011;74855;51.206;17.408;2024-03-07T22:55:10;30.88;;;16.67;;
84495;SDS011;74855;51.206;17.408;2024-03-07T23:00:06;25.13;;;14.15;;
84495;SDS011;74855;51.206;17.408;2024-03-07T23:05:04;30.48;;;14.40;;
84495;SDS011;74855;51.206;17.408;2024-03-07T23:10:00;24.60;;;14.38;;
84495;SDS011;74855;51.206;17.408;2024-03-07T23:14:56;26.20;;;15.27;;
84495;SDS011;74855;51.206;17.408;2024-03-07T23:19:52;33.28;;;15.02;;
84495;SDS011;74855;51.206;17.408;2024-03-07T23:24:49;34.55;;;15.75;;
84495;SDS011;74855;51.206;17.408;2024-03-07T23:29:45;32.45;;;16.15;;
84495;SDS011;74855;51.206;17.408;2024-03-07T23:34:41;34.67;;;16.95;;
84495;SDS011;74855;51.206;17.408;2024-03-07T23:39:36;32.58;;;17.35;;
84495;SDS011;74855;51.206;17.408;2024-03-07T23:44:33;30.75;;;16.60;;
84495;SDS011;74855;51.206;17.408;2024-03-07T23:49:29;37.70;;;16.48;;
84495;SDS011;74855;51.206;17.408;2024-03-07T23:54:25;35.55;;;19.02;;
84495;SDS011;74855;51.206;17.408;2024-03-07T23:59:21;32.92;;;16.15;;
